Adona, Arkansas
Current Conditions -  °F | °C
As of 10:53 PM on Friday 21 Nov 2014 (Local Time) from KRUE Reporting Station
Haze Haze  
Wind Chill: 48°   Ceiling: 5000
Heat Index: 48°   Visibility: 5mi
Dew Point: 46°   Wind: 3mph
Humidity: 93%   Direction: NA
Pressure: 30.23"   Gusts: NA
Location:  35.04°N, 92.9°W
Report Text: KRUE 220453Z AUTO VRB03KT 5SM BR OVC050 09/08 A3023 RMK AO2 SLP235 T00890078
Loading
Personal Weather Stations






























Interactive Weather Map New forecast layout! Learn more

10-Day Weather Forecast

Advertisements
Track Severe Weather on mobile